Info: BCA BNI CIMBNIAGA PERMATA ONLINE - BRI MANDIRI OFFLINE - TELAH HADIR BANK PERMATA & KOSPIN JASA UNTUK MEMPERMUDAH DEPOSIT DAN WITHDRAW ANDA..Dapatkan Kesempatan Bonus Lucky spin & Special Mistery Box Dengan Aktif Bermain Setiap Hari di POKER88.ASIA & Akses selalu melalui website resmi kami http://pk88asia.co/
REGISTER JACKPOT DEPOSIT REFERRAL DOWNLOAD PROMOSI CONTACT VIP
JACKPOT



   

Jackpot Winner Ceme

Jackpot hanya dapat di beli di awal sebelum periode tersebut berjalan dan jika berhasil maka anda dapat melihat di sisi kiri bawah atau kiri atas akan terdapat notifikasi bahwa jackpot anda berhasil di beli.

Jika anda membeli jackpot di tengah permainan maka pembelian jackpot akan berlaku untuk periode selanjutnya.

Jackpot dilihat dari gabungan kartu pemain dengan kartu bandar. Bandar harus membeli jackpot sebanyak jumlah player yang sedang duduk. Sebagai contoh bila terdapat 3 pemain duduk bermain, dan bandar memutuskan untuk membeli jackpot Rp 1.000, maka pada periode tersebut bandar akan membeli jackpot sebanyak 3xRp1.000 = Rp3.000.

Jackpot bukanlah suatu keharusan untuk dibeli, namun kami memberikan suatu fitur tambahan untuk member tercinta dari www.champ88.asia.

Terdapat tiga pilihan harga jackpot yang bisa anda beli yaitu :100,500 dan 1000 rupiah.

Hadiah dari Multi jackpot system www.champ88.asia

  1. Murni Kecil x 50 harga jackpot yang anda beli.
      (contoH:anda membeli 1000 maka:1000 X 50 = 50.000)
  2. Murni Besar x 50 harga jackpot yang anda beli
      (contoH:anda membeli 1000 maka:1000 X 50 = 50.000)
  3. BALAK x 200 harga jackpot yang anda beli
      (contoH:anda membeli 1000 maka:1000 X 200 = 200.000)
  4. ENAM DEWA x 6666 harga jackpot yang anda beli
      (contoH:anda membeli 1000 maka:1000 X 6666 = 6.666.000)

Demikian adalah penjelasan dari Multi Jackpot www.champ88.asia terima kasih dan selamat bermain salam hoki dari kami


Jackpot Winner

TOP ENAM DEWA
No. Tanggal Nama Price Win
1 14/11 00:55 JEMBO23 murni enam 6,666,000
2 14/11 00:54 FHAKRUL murni enam 6,666,000
3 14/11 00:54 SAGINA murni enam 6,666,000
4 14/11 00:53 CASBAYAR99 murni enam 6,666,000
5 14/11 00:39 BJXBRAVO77 murni enam 6,666,000
TOP BALAK
No. Tanggal Nama Price Win
1 14/11 01:03 MANTOS888 balak 200,000
2 14/11 01:03 C1690264 balak 200,000
3 14/11 01:03 JUNNN88 balak 200,000
4 14/11 01:02 Y0Y0H balak 20,000
5 14/11 01:02 DEWA_JUDI1 balak 20,000
LATEST JACKPOT
No. Tanggal Nama Price Win
1 14/11 01:03 TOFIX murni kecil 50,000
2 14/11 01:03 JON2910 murni kecil 50,000
3 14/11 01:03 BP888091 murni kecil 50,000
4 14/11 01:03 JONZ894 murni kecil 50,000
5 14/11 01:03 XJJKK222 murni kecil 5,000
6 14/11 01:03 DWTAJI0123 murni kecil 50,000
7 14/11 01:03 MANTOS888 balak 200,000
8 14/11 01:03 C1690264 balak 200,000
9 14/11 01:03 ZOMBET murni kecil 50,000
10 14/11 01:03 XJ2TE47A54 murni besar 50,000
11 14/11 01:03 ELANG202 murni besar 50,000
12 14/11 01:03 PXT4 murni kecil 50,000
13 14/11 01:03 ANDRECOY murni kecil 50,000
14 14/11 01:03 BLONDE_AA murni besar 50,000
15 14/11 01:03 DOOL82 murni kecil 5,000
16 14/11 01:03 MYPOMADE murni besar 5,000
17 14/11 01:03 JUNNN88 balak 200,000
18 14/11 01:03 ARYASY murni kecil 5,000
19 14/11 01:03 MHDGENZAI murni kecil 50,000
20 14/11 01:02 YOYOK101 murni kecil 25,000
21 14/11 01:02 Y0Y0H balak 20,000
22 14/11 01:02 DEWA_JUDI1 balak 20,000
23 14/11 01:02 AYAMKU08 murni besar 5,000
24 14/11 01:02 NIDHA28 balak 200,000
25 14/11 01:02 WAY4693 balak 200,000
26 14/11 01:02 FANDHY09 murni besar 50,000
27 14/11 01:02 BHEWE20 murni kecil 50,000
28 14/11 01:02 RONALDOWAT murni kecil 25,000
29 14/11 01:02 SYAHRUL025 balak 200,000
30 14/11 01:02 EVAD_99 balak 20,000
31 14/11 01:02 SHALE balak 100,000
32 14/11 01:02 DIAN5959 murni kecil 50,000
33 14/11 01:02 HAYATI889 murni besar 50,000
34 14/11 01:02 JEMBLONX murni besar 50,000
35 14/11 01:02 VEEZALL88 murni kecil 50,000
36 14/11 01:02 DWBTTXL50 murni kecil 50,000
37 14/11 01:02 UCRIT11 murni kecil 50,000
38 14/11 01:02 DIKCA balak 100,000
39 14/11 01:01 SIVA96 balak 200,000
40 14/11 01:01 ACHEN05 balak 200,000
41 14/11 01:01 WADEP13 murni kecil 25,000
42 14/11 01:01 DEVN1993 murni besar 50,000
43 14/11 01:01 GANGTEMPE murni besar 50,000
44 14/11 01:01 MADAWP murni besar 5,000
45 14/11 01:01 JEPRIPEA balak 20,000
46 14/11 01:01 NOUGOT balak 20,000
47 14/11 01:01 TARI1212 murni kecil 50,000
48 14/11 01:01 YOPI24855 murni kecil 50,000
49 14/11 01:01 JOKKO99 murni kecil 25,000
50 14/11 01:01 NAMASAKE murni kecil 50,000
Dewa.FM